createdAt,value
2019-02-03T00:02:23.848Z,8.17
2019-02-03T00:07:27.243Z,8.27
2019-02-03T00:12:30.623Z,9.07
2019-02-03T00:17:34.006Z,6.20
2019-02-03T00:22:37.391Z,7.97
2019-02-03T00:27:40.764Z,8.53
2019-02-03T00:32:44.142Z,8.23
2019-02-03T00:37:47.814Z,8.70
2019-02-03T00:42:51.198Z,5.90
2019-02-03T00:47:54.581Z,6.70
2019-02-03T00:52:57.963Z,8.17
2019-02-03T00:58:01.351Z,6.10
2019-02-03T01:03:05.012Z,7.23
2019-02-03T01:08:08.703Z,6.87
2019-02-03T01:13:12.087Z,4.90
2019-02-03T01:18:15.466Z,6.43
2019-02-03T01:23:19.843Z,7.63
2019-02-03T01:28:23.228Z,8.60
2019-02-03T01:33:26.620Z,7.97
2019-02-03T01:38:30.010Z,8.67
2019-02-03T01:43:33.403Z,8.17
2019-02-03T01:48:36.779Z,8.13
2019-02-03T01:53:40.167Z,8.70
2019-02-03T01:58:43.728Z,6.47
2019-02-03T02:03:47.103Z,8.10
2019-02-03T02:08:50.555Z,9.47
2019-02-03T02:13:53.938Z,6.33
2019-02-03T02:18:57.337Z,5.83
2019-02-03T02:24:00.711Z,7.00
2019-02-03T02:29:04.082Z,6.40
2019-02-03T02:34:07.643Z,6.70
2019-02-03T02:39:11.044Z,6.90
2019-02-03T02:44:14.432Z,6.50
2019-02-03T02:49:17.815Z,5.83
2019-02-03T02:54:21.201Z,4.53
2019-02-03T02:59:24.592Z,7.97
2019-02-03T03:04:27.989Z,4.53
2019-02-03T03:09:31.818Z,5.20
2019-02-03T03:14:35.199Z,4.37
2019-02-03T03:19:38.588Z,5.57
2019-02-03T03:24:41.973Z,7.10
2019-02-03T03:29:45.427Z,5.87
2019-02-03T03:34:48.827Z,5.40
2019-02-03T03:39:52.231Z,5.30
2019-02-03T03:44:55.904Z,4.07
2019-02-03T03:49:59.276Z,6.00
2019-02-03T03:55:02.733Z,3.67
2019-02-03T04:00:14.843Z,4.27
2019-02-03T04:05:18.496Z,7.97
2019-02-03T04:10:23.472Z,4.10
2019-02-03T04:15:26.921Z,4.30
2019-02-03T04:20:30.941Z,4.53
2019-02-03T04:25:34.315Z,6.50
2019-02-03T04:30:37.701Z,7.00
2019-02-03T04:35:41.087Z,5.20
2019-02-03T04:40:44.483Z,4.83
2019-02-03T04:45:47.870Z,5.70
2019-02-03T04:50:51.252Z,6.33
2019-02-03T04:55:54.632Z,5.70
2019-02-03T05:00:58.016Z,7.57
2019-02-03T05:06:01.403Z,7.17
2019-02-03T05:11:04.848Z,3.97
2019-02-03T05:16:08.494Z,3.73
2019-02-03T05:21:11.883Z,5.10
2019-02-03T05:26:15.272Z,5.20
2019-02-03T05:31:18.635Z,4.77
2019-02-03T05:36:22.020Z,3.57
2019-02-03T05:41:25.395Z,2.50
2019-02-03T05:46:29.629Z,4.00
2019-02-03T05:51:33.182Z,3.33
2019-02-03T05:56:36.559Z,3.63
2019-02-03T06:01:39.956Z,2.93
2019-02-03T06:06:43.331Z,3.77
2019-02-03T06:11:46.711Z,3.10
2019-02-03T06:16:50.100Z,1.90
2019-02-03T06:21:53.484Z,4.93
2019-02-03T06:26:57.156Z,1.20
2019-02-03T06:32:00.536Z,3.20
2019-02-03T06:37:03.919Z,2.37
2019-02-03T06:42:07.300Z,2.30
2019-02-03T06:47:14.967Z,4.00
2019-02-03T06:52:18.919Z,2.40
2019-02-03T06:57:22.292Z,2.57
2019-02-03T07:02:25.676Z,1.53
2019-02-03T07:07:29.059Z,1.53
2019-02-03T07:12:32.486Z,2.10
2019-02-03T07:17:35.854Z,1.67
2019-02-03T07:22:39.230Z,1.83
2019-02-03T07:27:42.607Z,3.90
2019-02-03T07:32:45.987Z,2.67
2019-02-03T07:37:49.418Z,2.73
2019-02-03T07:42:52.851Z,1.97
2019-02-03T07:47:56.206Z,2.30
2019-02-03T07:58:02.932Z,0.97
2019-02-03T08:03:06.651Z,1.40
2019-02-03T08:08:10.026Z,2.10
2019-02-03T08:13:13.688Z,1.63
2019-02-03T08:18:17.075Z,2.20
2019-02-03T08:23:20.456Z,1.70
2019-02-03T08:28:23.827Z,1.80
2019-02-03T08:33:27.208Z,2.43
2019-02-03T08:38:30.581Z,1.43
2019-02-03T08:43:33.959Z,1.80
2019-02-03T08:48:37.653Z,1.47
2019-02-03T08:53:41.027Z,2.70
2019-02-03T08:58:44.404Z,2.30
2019-02-03T09:03:47.787Z,3.30
2019-02-03T09:08:51.169Z,1.80
2019-02-03T09:13:55.724Z,1.23
2019-02-03T09:18:59.206Z,1.20
2019-02-03T09:24:03.004Z,2.80
2019-02-03T09:29:06.525Z,1.50
2019-02-03T09:34:09.917Z,1.20
2019-02-03T09:39:13.337Z,1.80
2019-02-03T09:44:16.783Z,2.60
2019-02-03T09:49:20.193Z,1.97
2019-02-03T09:54:23.563Z,2.07
2019-02-03T09:59:26.943Z,2.70
2019-02-03T10:04:30.324Z,2.40
2019-02-03T10:09:33.712Z,2.20
2019-02-03T10:14:37.087Z,2.37
2019-02-03T10:19:40.471Z,2.60
2019-02-03T10:24:44.053Z,1.60
2019-02-03T10:29:47.443Z,1.70
2019-02-03T10:34:50.820Z,1.37
2019-02-03T10:39:54.195Z,3.50
2019-02-03T10:44:57.647Z,2.87
2019-02-03T10:50:01.534Z,2.90
2019-02-03T10:55:08.043Z,2.33
2019-02-03T11:00:23.122Z,2.27
2019-02-03T11:05:32.143Z,3.43
2019-02-03T11:10:35.519Z,1.90
2019-02-03T11:15:38.912Z,2.90
2019-02-03T11:20:42.300Z,2.80
2019-02-03T11:25:45.675Z,1.90
2019-02-03T11:30:49.126Z,2.30
2019-02-03T11:35:52.699Z,2.30
2019-02-03T11:40:56.147Z,2.17
2019-02-03T11:45:59.534Z,2.57
2019-02-03T11:51:04.447Z,2.10
2019-02-03T11:56:08.015Z,2.03
2019-02-03T12:01:11.400Z,1.23
2019-02-03T12:06:14.777Z,1.77
2019-02-03T12:11:18.541Z,2.03
2019-02-03T12:16:21.924Z,2.70
2019-02-03T12:21:25.315Z,2.13
2019-02-03T12:26:28.692Z,2.10
2019-02-03T12:31:32.075Z,2.20
2019-02-03T12:36:35.539Z,1.87
2019-02-03T12:41:38.988Z,1.83
2019-02-03T12:46:42.371Z,3.17
2019-02-03T12:51:45.744Z,2.90
2019-02-03T12:56:49.122Z,1.67
2019-02-03T13:01:52.504Z,2.40
2019-02-03T13:06:55.947Z,2.97
2019-02-03T13:11:59.323Z,4.40
2019-02-03T13:17:02.724Z,1.73
2019-02-03T13:22:06.449Z,1.80
2019-02-03T13:27:11.465Z,2.53
2019-02-03T13:32:15.119Z,1.93
2019-02-03T13:37:18.558Z,2.30
2019-02-03T13:42:22.009Z,1.43
2019-02-03T13:47:25.398Z,3.80
2019-02-03T13:52:28.783Z,2.30
2019-02-03T13:57:32.171Z,2.80
2019-02-03T14:02:35.543Z,1.70
2019-02-03T14:07:38.991Z,2.87
2019-02-03T14:12:50.238Z,2.80
2019-02-03T14:17:47.643Z,1.90
2019-02-03T14:22:51.268Z,3.63
2019-02-03T14:27:54.872Z,2.07
2019-02-03T14:32:58.614Z,2.80
2019-02-03T14:38:02.074Z,2.43
2019-02-03T14:43:05.561Z,3.33
2019-02-03T14:48:09.068Z,3.00
2019-02-03T14:53:13.392Z,2.20
2019-02-03T14:58:16.784Z,1.70
2019-02-03T15:03:20.668Z,1.70
2019-02-03T15:08:24.039Z,2.67
2019-02-03T15:13:27.421Z,2.10
2019-02-03T15:18:30.803Z,3.00
2019-02-03T15:23:34.192Z,1.47
2019-02-03T15:28:37.571Z,2.77
2019-02-03T15:33:40.960Z,3.43
2019-02-03T15:38:46.015Z,1.17
2019-02-03T15:43:49.411Z,2.30
2019-02-03T15:48:52.803Z,2.63
2019-02-03T15:53:56.247Z,2.60
2019-02-03T15:58:59.611Z,3.10
2019-02-03T16:04:02.995Z,1.43
2019-02-03T16:09:08.502Z,1.87
2019-02-03T16:14:11.929Z,2.80
2019-02-03T16:19:15.310Z,2.40
2019-02-03T16:24:18.680Z,4.33
2019-02-03T16:29:22.065Z,2.70
2019-02-03T16:34:25.795Z,1.70
2019-02-03T16:39:29.725Z,2.53
2019-02-03T16:44:33.182Z,1.97
2019-02-03T16:49:36.623Z,3.30
2019-02-03T16:54:40.355Z,3.10
2019-02-03T16:59:43.807Z,2.53
2019-02-03T17:04:47.227Z,2.37
2019-02-03T17:09:50.662Z,3.97
2019-02-03T17:14:54.220Z,3.43
2019-02-03T17:19:57.742Z,3.90
2019-02-03T17:25:01.155Z,3.37
2019-02-03T17:30:07.698Z,3.10
2019-02-03T17:35:11.515Z,4.30
2019-02-03T17:40:15.998Z,3.07
2019-02-03T17:45:24.386Z,4.27
2019-02-03T17:50:31.762Z,3.37
2019-02-03T17:55:35.197Z,3.93
2019-02-03T18:00:40.218Z,3.70
2019-02-03T18:05:43.648Z,4.07
2019-02-03T18:10:47.082Z,5.67
2019-02-03T18:15:50.604Z,2.43
2019-02-03T18:20:54.016Z,3.27
2019-02-03T18:25:57.515Z,3.03
2019-02-03T18:31:00.916Z,3.20
2019-02-03T18:36:04.492Z,3.03
2019-02-03T18:41:07.999Z,3.03
2019-02-03T18:46:11.455Z,3.53
2019-02-03T18:51:14.909Z,2.70
2019-02-03T18:56:18.329Z,2.60
2019-02-03T19:01:21.739Z,3.87
2019-02-03T19:06:25.150Z,2.00
2019-02-03T19:11:28.758Z,3.13
2019-02-03T19:16:32.174Z,1.53
2019-02-03T19:21:35.598Z,2.47
2019-02-03T19:26:39.029Z,2.77
2019-02-03T19:31:42.471Z,2.80
2019-02-03T19:36:45.869Z,2.77
2019-02-03T19:41:49.275Z,2.40
2019-02-03T19:46:52.936Z,4.17
2019-02-03T19:51:56.327Z,3.50
2019-02-03T19:56:59.721Z,4.60
2019-02-03T20:02:03.099Z,3.30
2019-02-03T20:07:06.475Z,2.57
2019-02-03T20:12:09.863Z,2.73
2019-02-03T20:17:13.237Z,3.10
2019-02-03T20:22:16.993Z,2.60
2019-02-03T20:27:20.388Z,2.47
2019-02-03T20:32:23.763Z,3.07
2019-02-03T20:37:27.168Z,2.97
2019-02-03T20:42:30.564Z,2.07
2019-02-03T20:47:34.020Z,2.20
2019-02-03T20:52:37.416Z,1.17
2019-02-03T20:57:40.789Z,1.70
2019-02-03T21:02:44.180Z,2.37
2019-02-03T21:07:47.557Z,1.80
2019-02-03T21:12:51.082Z,1.80
2019-02-03T21:17:54.722Z,2.73
2019-02-03T21:22:58.496Z,2.93
2019-02-03T21:28:01.886Z,2.60
2019-02-03T21:33:05.611Z,3.13
2019-02-03T21:38:09.074Z,4.03
2019-02-03T21:43:12.450Z,2.23
2019-02-03T21:48:15.857Z,3.63
2019-02-03T21:53:19.257Z,2.73
2019-02-03T21:58:22.650Z,2.87
2019-02-03T22:03:26.051Z,3.50
2019-02-03T22:08:29.431Z,2.93
2019-02-03T22:13:32.812Z,1.97
2019-02-03T22:18:36.211Z,2.47
2019-02-03T22:23:39.596Z,2.30
2019-02-03T22:28:42.999Z,4.57
2019-02-03T22:33:46.388Z,1.90
2019-02-03T22:38:49.769Z,3.10
2019-02-03T22:43:53.160Z,2.67
2019-02-03T22:48:56.550Z,4.30
2019-02-03T22:53:59.936Z,1.67
2019-02-03T22:59:03.310Z,3.10
2019-02-03T23:04:06.768Z,2.53
2019-02-03T23:09:13.735Z,2.93
2019-02-03T23:14:17.120Z,1.67
2019-02-03T23:19:20.508Z,3.30
2019-02-03T23:24:23.902Z,2.20
2019-02-03T23:29:27.275Z,2.93
2019-02-03T23:34:30.696Z,2.63
2019-02-03T23:39:34.070Z,3.57
2019-02-03T23:44:37.459Z,1.97
2019-02-03T23:49:40.843Z,3.03
2019-02-03T23:54:44.230Z,1.90
2019-02-03T23:59:47.615Z,2.70
